Time;durP1;ratioP1;P1;durP2;ratioP2;P2;SDS_P1;SDS_P2;PMS_P1;PMS_P2;Temp;Humidity;BMP_temperature;BMP_pressure;BME280_temperature;BME280_humidity;BME280_pressure;Samples;Min_cycle;Max_cycle;Signal;HPM_P1;HPM_P2
2022/08/03 00:01:03;;;;;;;0.30;0.30;;;24.50;67.30;;;;;;4987174;28;20537;-37
2022/08/03 00:03:28;;;;;;;0.65;0.32;;;24.40;67.30;;;;;;4986990;28;20487;-32
2022/08/03 00:05:54;;;;;;;1.42;0.43;;;24.40;67.30;;;;;;4989066;28;20511;-38
2022/08/03 00:08:19;;;;;;;0.65;0.30;;;24.40;67.40;;;;;;4987132;28;20058;-32
2022/08/03 00:10:45;;;;;;;0.30;0.30;;;24.40;67.30;;;;;;4987437;28;20043;-34
2022/08/03 00:13:12;;;;;;;0.70;0.20;;;24.40;67.40;;;;;;4988702;28;20092;-32
2022/08/03 00:15:41;;;;;;;0.45;0.30;;;24.40;67.40;;;;;;4987546;28;20042;-34
2022/08/03 00:18:07;;;;;;;0.30;0.30;;;24.50;67.30;;;;;;4988040;28;20045;-32
2022/08/03 00:20:33;;;;;;;0.38;0.38;;;24.40;67.40;;;;;;4986847;28;20042;-36
2022/08/03 00:22:58;;;;;;;0.45;0.40;;;24.40;67.50;;;;;;4986804;28;20045;-37
2022/08/03 00:25:24;;;;;;;0.68;0.30;;;24.40;67.60;;;;;;4987623;28;20043;-31
2022/08/03 00:27:49;;;;;;;0.63;0.22;;;24.40;67.50;;;;;;4987277;28;20392;-38
2022/08/03 00:30:15;;;;;;;1.42;0.40;;;24.30;67.50;;;;;;4986601;28;20077;-33
2022/08/03 00:32:40;;;;;;;0.52;0.38;;;24.40;67.60;;;;;;4987098;28;20046;-35
2022/08/03 00:35:06;;;;;;;0.52;0.40;;;24.40;67.60;;;;;;4988195;28;20108;-35
2022/08/03 00:37:32;;;;;;;0.60;0.40;;;24.30;67.60;;;;;;4987478;28;20058;-34
2022/08/03 00:39:57;;;;;;;0.43;0.32;;;24.30;67.80;;;;;;4988599;28;20035;-37
2022/08/03 00:42:23;;;;;;;0.45;0.30;;;24.30;67.70;;;;;;4986626;28;20405;-35
2022/08/03 00:44:49;;;;;;;0.63;0.40;;;24.30;67.70;;;;;;4986744;28;20488;-34
2022/08/03 00:47:14;;;;;;;0.35;0.28;;;24.30;67.80;;;;;;4985911;28;20101;-36
2022/08/03 00:49:40;;;;;;;0.38;0.20;;;24.30;67.80;;;;;;4988582;28;20129;-37
2022/08/03 00:52:07;;;;;;;0.50;0.30;;;24.40;67.90;;;;;;5021656;28;20503;-34
2022/08/03 00:54:33;;;;;;;0.30;0.30;;;24.40;67.80;;;;;;4984494;28;20046;-36
2022/08/03 00:56:58;;;;;;;0.55;0.40;;;24.30;67.80;;;;;;5017420;28;20104;-29
2022/08/03 00:59:24;;;;;;;0.30;0.30;;;24.30;67.90;;;;;;4985490;28;20362;-39
2022/08/03 01:01:50;;;;;;;0.60;0.35;;;24.30;68.70;;;;;;4986260;28;20062;-36
2022/08/03 01:04:15;;;;;;;0.30;0.30;;;24.30;68.00;;;;;;4987381;28;20046;-35
2022/08/03 01:06:49;;;;;;;0.68;0.30;;;24.30;68.00;;;;;;4988514;28;20042;-38
2022/08/03 01:09:49;;;;;;;0.30;0.30;;;24.40;67.80;;;;;;4987084;28;20044;-38
2022/08/03 01:12:40;;;;;;;0.50;0.20;;;24.40;67.90;;;;;;4986574;28;20527;-35
2022/08/03 01:15:14;;;;;;;0.30;0.30;;;24.30;67.70;;;;;;4982643;28;20404;-37
2022/08/03 01:17:50;;;;;;;0.45;0.40;;;24.30;67.80;;;;;;4998127;28;20039;-36
2022/08/03 01:20:16;;;;;;;0.30;0.30;;;24.30;68.00;;;;;;4994418;28;20051;-32
2022/08/03 01:23:07;;;;;;;0.40;0.40;;;24.30;68.00;;;;;;5002225;28;20109;-37
2022/08/03 01:25:45;;;;;;;0.40;0.40;;;24.30;68.10;;;;;;5014840;28;20062;-33
2022/08/03 01:28:41;;;;;;;0.47;0.30;;;24.30;67.90;;;;;;4997868;28;20092;-37
2022/08/03 01:31:08;;;;;;;0.40;0.30;;;24.30;68.00;;;;;;4986681;28;20109;-33
2022/08/03 01:33:39;;;;;;;0.55;0.35;;;24.30;68.00;;;;;;4985890;28;20034;-37
2022/08/03 01:36:08;;;;;;;0.47;0.20;;;24.30;68.10;;;;;;4985846;28;20067;-35
2022/08/03 01:38:35;;;;;;;0.38;0.38;;;24.30;68.20;;;;;;4984906;28;20049;-31
2022/08/03 01:41:11;;;;;;;0.52;0.40;;;24.20;68.10;;;;;;5017738;28;20071;-33
2022/08/03 01:43:37;;;;;;;0.32;0.30;;;24.20;68.10;;;;;;5016877;28;20046;-38
2022/08/03 01:46:03;;;;;;;0.30;0.30;;;24.30;68.10;;;;;;5017124;28;20065;-36
2022/08/03 01:48:28;;;;;;;0.38;0.38;;;24.30;68.20;;;;;;4982352;28;20046;-35
2022/08/03 01:50:54;;;;;;;0.20;0.20;;;24.20;68.10;;;;;;5001685;28;20454;-35
2022/08/03 01:53:20;;;;;;;0.52;0.50;;;24.20;68.10;;;;;;4983055;28;20046;-32
2022/08/03 01:55:46;;;;;;;0.30;0.30;;;24.30;68.10;;;;;;4983935;28;20523;-35
2022/08/03 01:58:13;;;;;;;0.30;0.30;;;24.30;68.20;;;;;;5002137;28;20495;-34
2022/08/03 02:00:39;;;;;;;0.55;0.40;;;24.30;68.80;;;;;;4982455;28;20030;-37
2022/08/03 02:03:05;;;;;;;1.00;0.10;;;24.20;68.10;;;;;;4999624;28;20049;-38
2022/08/03 02:05:31;;;;;;;0.50;0.40;;;24.20;68.10;;;;;;5017366;28;20650;-37
2022/08/03 02:07:56;;;;;;;0.43;0.43;;;24.20;68.20;;;;;;4984436;28;20092;-34
2022/08/03 02:10:22;;;;;;;1.25;0.52;;;24.30;68.20;;;;;;4984656;28;20459;-35
2022/08/03 02:12:47;;;;;;;0.50;0.43;;;24.20;68.20;;;;;;5013273;28;20058;-34
2022/08/03 02:15:14;;;;;;;0.32;0.30;;;24.20;68.30;;;;;;4984417;28;20045;-35
2022/08/03 02:17:40;;;;;;;0.38;0.38;;;24.30;68.20;;;;;;4981911;28;20138;-17
2022/08/03 02:20:09;;;;;;;0.30;0.20;;;24.20;68.00;;;;;;5015535;28;21485;-17
2022/08/03 02:22:35;;;;;;;0.20;0.20;;;24.30;68.10;;;;;;5016603;28;20066;-17
2022/08/03 02:25:00;;;;;;;0.45;0.35;;;24.20;68.10;;;;;;5000981;28;20062;-17
2022/08/03 02:27:26;;;;;;;0.50;0.40;;;24.20;68.40;;;;;;4983206;28;20034;-17
2022/08/03 02:29:57;;;;;;;1.55;0.40;;;24.20;68.40;;;;;;4983659;28;20416;-17
2022/08/03 02:32:25;;;;;;;0.90;0.20;;;24.20;68.20;;;;;;5015233;28;20054;-19
2022/08/03 02:34:52;;;;;;;0.70;0.30;;;24.20;68.30;;;;;;4983818;28;20137;-17
2022/08/03 02:37:18;;;;;;;0.90;0.40;;;24.20;68.30;;;;;;5013728;28;20507;-17
2022/08/03 02:39:43;;;;;;;0.43;0.35;;;24.20;68.40;;;;;;5018003;28;20081;-18
2022/08/03 02:42:09;;;;;;;1.23;0.38;;;24.30;68.10;;;;;;4986516;28;20054;-18
2022/08/03 02:44:35;;;;;;;0.30;0.30;;;24.20;68.00;;;;;;4984407;28;20050;-18
2022/08/03 02:47:06;;;;;;;0.50;0.50;;;24.20;68.30;;;;;;5016449;28;20050;-17
2022/08/03 02:49:32;;;;;;;0.30;0.30;;;24.20;68.20;;;;;;5012910;28;20102;-17
2022/08/03 02:51:57;;;;;;;0.30;0.30;;;24.20;68.40;;;;;;4997649;28;20422;-17
2022/08/03 02:54:23;;;;;;;0.20;0.20;;;24.20;68.30;;;;;;4985396;28;20117;-18
2022/08/03 02:56:49;;;;;;;0.25;0.20;;;24.20;68.40;;;;;;4981997;28;20038;-17
2022/08/03 02:59:15;;;;;;;0.57;0.57;;;24.20;68.50;;;;;;4984620;28;20057;-17
2022/08/03 03:01:41;;;;;;;0.85;0.52;;;24.20;68.50;;;;;;5013974;28;20308;-17
2022/08/03 03:04:06;;;;;;;0.30;0.30;;;24.20;68.40;;;;;;5002205;28;20046;-17
2022/08/03 03:06:32;;;;;;;0.60;0.50;;;24.20;68.40;;;;;;5015410;28;20081;-17
2022/08/03 03:08:58;;;;;;;0.82;0.60;;;24.20;68.40;;;;;;5017097;28;20093;-17
2022/08/03 03:11:24;;;;;;;0.30;0.30;;;24.10;68.50;;;;;;5013044;28;20133;-18
2022/08/03 03:13:49;;;;;;;0.68;0.40;;;24.20;68.60;;;;;;5016438;28;20042;-17
2022/08/03 03:16:15;;;;;;;1.02;0.40;;;24.20;68.40;;;;;;5001923;28;20038;-18
2022/08/03 03:18:41;;;;;;;0.60;0.40;;;24.20;68.50;;;;;;4983905;28;20039;-17
2022/08/03 03:21:08;;;;;;;0.70;0.30;;;24.20;68.50;;;;;;4986715;28;20108;-17
2022/08/03 03:23:35;;;;;;;0.70;0.30;;;24.20;68.50;;;;;;5019958;28;20470;-17
2022/08/03 03:26:01;;;;;;;0.40;0.40;;;24.20;68.60;;;;;;4986290;28;20034;-17
2022/08/03 03:28:27;;;;;;;0.25;0.25;;;24.10;68.60;;;;;;5004048;28;20045;-18
2022/08/03 03:30:53;;;;;;;0.45;0.32;;;24.10;68.70;;;;;;4987378;28;20050;-18
2022/08/03 03:33:19;;;;;;;0.65;0.50;;;24.20;68.50;;;;;;4988563;28;20044;-17
2022/08/03 03:35:45;;;;;;;0.40;0.38;;;24.20;68.50;;;;;;5003972;28;20042;-18
2022/08/03 03:38:11;;;;;;;0.55;0.47;;;24.20;68.20;;;;;;5018496;28;20118;-17
2022/08/03 03:40:37;;;;;;;0.60;0.30;;;24.20;68.20;;;;;;4987848;28;20137;-18
2022/08/03 03:43:06;;;;;;;0.40;0.40;;;24.20;68.40;;;;;;5019822;28;20447;-27
2022/08/03 03:45:32;;;;;;;0.25;0.20;;;24.20;68.30;;;;;;5015963;28;20096;-18
2022/08/03 03:48:00;;;;;;;0.50;0.40;;;24.20;68.40;;;;;;4986688;28;20134;-17
2022/08/03 03:50:25;;;;;;;0.40;0.40;;;24.20;68.40;;;;;;4986470;28;20048;-18
2022/08/03 03:52:51;;;;;;;1.60;0.30;;;24.30;69.00;;;;;;5018550;28;20046;-17
2022/08/03 03:55:17;;;;;;;0.30;0.30;;;24.20;68.40;;;;;;4990193;28;20037;-17
2022/08/03 03:57:42;;;;;;;0.40;0.40;;;24.20;68.40;;;;;;4983859;28;20042;-17
2022/08/03 04:00:09;;;;;;;1.10;0.35;;;24.30;68.30;;;;;;4989368;28;20414;-17
2022/08/03 04:02:34;;;;;;;0.20;0.20;;;24.20;68.30;;;;;;4988122;28;20101;-17
2022/08/03 04:11:00;;;;;;;1.10;0.40;;;24.20;68.10;;;;;;4986706;28;20125;-17
2022/08/03 04:13:34;;;;;;;1.75;0.65;;;24.00;69.40;;;;;;5015896;28;20061;-17
2022/08/03 04:15:59;;;;;;;;;;;23.90;70.40;;;;;;4989101;28;20038;-17
2022/08/03 04:18:25;;;;;;;0.77;0.60;;;23.70;71.10;;;;;;4988014;28;19925;-17
2022/08/03 04:20:51;;;;;;;1.17;0.70;;;23.70;71.40;;;;;;5017011;28;20081;-18
2022/08/03 04:23:18;;;;;;;0.50;0.50;;;23.60;71.80;;;;;;4987037;28;20093;-17
2022/08/03 04:25:44;;;;;;;0.60;0.60;;;23.60;72.10;;;;;;4986370;28;20042;-18
2022/08/03 04:28:09;;;;;;;0.50;0.50;;;23.40;72.70;;;;;;5018978;28;20096;-17
2022/08/03 04:30:35;;;;;;;1.10;0.50;;;23.30;73.40;;;;;;4984062;28;20042;-17
2022/08/03 04:33:00;;;;;;;1.50;0.63;;;23.30;73.50;;;;;;4984759;28;20046;-17
2022/08/03 04:35:28;;;;;;;1.27;0.63;;;23.30;73.50;;;;;;4986702;28;20042;-17
2022/08/03 04:37:54;;;;;;;0.73;0.73;;;23.30;73.60;;;;;;4969841;28;20054;-18
2022/08/03 04:40:33;;;;;;;1.35;0.70;;;23.10;74.10;;;;;;5018449;28;20034;-17
2022/08/03 04:42:59;;;;;;;1.15;0.70;;;23.00;74.60;;;;;;4987478;28;20042;-17
2022/08/03 04:45:25;;;;;;;2.35;0.75;;;23.00;75.20;;;;;;4965386;28;20046;-18
2022/08/03 04:47:50;;;;;;;1.33;1.23;;;22.80;75.50;;;;;;4990830;28;20070;-17
2022/08/03 04:50:16;;;;;;;1.80;1.08;;;22.90;75.60;;;;;;4982782;28;20061;-26
2022/08/03 04:52:41;;;;;;;1.42;1.15;;;22.80;76.20;;;;;;4986704;28;20096;-21
2022/08/03 04:55:07;;;;;;;0.90;0.90;;;22.80;76.00;;;;;;5005345;28;20050;-17
2022/08/03 04:57:33;;;;;;;1.13;0.98;;;22.80;76.40;;;;;;4992697;28;20058;-18
2022/08/03 04:59:59;;;;;;;1.00;1.00;;;22.70;76.70;;;;;;4997589;28;20060;-17
2022/08/03 05:02:24;;;;;;;1.40;0.95;;;22.70;76.60;;;;;;4989400;28;20034;-17
2022/08/03 05:04:50;;;;;;;1.10;1.10;;;22.60;76.80;;;;;;4995490;28;20054;-17
2022/08/03 05:07:16;;;;;;;0.88;0.88;;;22.50;77.20;;;;;;4992733;28;20038;-17
2022/08/03 05:09:42;;;;;;;1.75;1.20;;;22.50;77.10;;;;;;4984744;28;20038;-17
2022/08/03 05:12:07;;;;;;;1.10;1.00;;;22.50;77.20;;;;;;4984715;28;20104;-17
2022/08/03 05:14:35;;;;;;;2.67;1.17;;;22.60;77.10;;;;;;4987454;28;20045;-17
2022/08/03 05:17:01;;;;;;;1.20;1.10;;;22.50;77.50;;;;;;4984983;28;20054;-17
2022/08/03 05:19:26;;;;;;;1.25;1.00;;;22.50;78.20;;;;;;4996325;28;20519;-17
2022/08/03 05:21:52;;;;;;;1.90;1.52;;;22.40;77.60;;;;;;4995058;28;20104;-17
2022/08/03 05:24:17;;;;;;;1.48;1.35;;;22.40;77.60;;;;;;4995627;28;20038;-17
2022/08/03 05:26:43;;;;;;;1.30;1.30;;;22.40;77.90;;;;;;4993254;28;20484;-18
2022/08/03 05:29:09;;;;;;;1.63;1.20;;;22.40;77.90;;;;;;4989100;28;20492;-17
2022/08/03 05:31:34;;;;;;;1.23;1.20;;;22.40;78.70;;;;;;4986325;28;20157;-17
2022/08/03 05:34:00;;;;;;;2.00;1.45;;;22.30;78.20;;;;;;4989372;28;20045;-18
2022/08/03 05:36:25;;;;;;;0.93;0.93;;;22.30;79.00;;;;;;4990247;28;20559;-18
2022/08/03 05:38:51;;;;;;;1.02;1.02;;;22.40;78.20;;;;;;4988340;28;20046;-18
2022/08/03 05:41:16;;;;;;;1.30;1.20;;;22.30;78.10;;;;;;4984096;28;20097;-18
2022/08/03 05:43:42;;;;;;;1.55;1.45;;;22.40;78.20;;;;;;4986689;28;20414;-17
2022/08/03 05:46:08;;;;;;;2.35;1.50;;;22.30;79.20;;;;;;4988529;28;20054;-18
2022/08/03 05:48:34;;;;;;;1.38;1.33;;;22.20;78.50;;;;;;4990506;28;20220;-18
2022/08/03 05:50:59;;;;;;;1.25;1.15;;;22.20;78.90;;;;;;4989644;28;20046;-17
2022/08/03 05:53:25;;;;;;;1.60;1.50;;;22.10;79.20;;;;;;4986858;28;20031;-17
2022/08/03 05:55:51;;;;;;;1.60;1.50;;;22.10;79.50;;;;;;4987654;28;20304;-20
2022/08/03 05:58:16;;;;;;;1.60;1.50;;;22.10;79.50;;;;;;4985970;28;20031;-18
2022/08/03 06:00:42;;;;;;;1.88;1.60;;;22.10;79.30;;;;;;4985888;28;20474;-18
2022/08/03 06:03:07;;;;;;;2.45;1.40;;;22.10;79.30;;;;;;4986486;28;20038;-18
2022/08/03 06:05:35;;;;;;;1.40;1.30;;;22.10;79.40;;;;;;4985884;28;20045;-19
2022/08/03 06:08:01;;;;;;;1.65;1.48;;;22.10;79.50;;;;;;4985381;28;20499;-18
2022/08/03 06:10:27;;;;;;;1.50;1.40;;;22.10;79.20;;;;;;4987929;28;20085;-17
2022/08/03 06:12:52;;;;;;;2.10;1.08;;;22.10;79.60;;;;;;4984425;28;20078;-17
2022/08/03 06:15:18;;;;;;;1.30;1.20;;;22.10;79.60;;;;;;4984615;28;20034;-18
2022/08/03 06:17:45;;;;;;;1.52;1.42;;;22.10;79.40;;;;;;4978909;28;20129;-18
2022/08/03 06:20:11;;;;;;;1.90;1.70;;;22.10;79.60;;;;;;4986236;28;20124;-17
2022/08/03 06:22:36;;;;;;;1.60;1.50;;;22.10;79.80;;;;;;4977688;28;20081;-17
2022/08/03 06:25:02;;;;;;;1.50;1.40;;;22.10;79.50;;;;;;4980870;28;20498;-17
2022/08/03 06:27:28;;;;;;;2.03;1.92;;;22.10;79.80;;;;;;4984582;28;20038;-17
2022/08/03 06:29:53;;;;;;;3.13;1.83;;;22.10;80.10;;;;;;4985881;28;20046;-17
2022/08/03 06:32:21;;;;;;;2.15;1.55;;;22.10;80.10;;;;;;4984592;28;20092;-17
2022/08/03 06:34:47;;;;;;;1.95;1.85;;;22.10;80.30;;;;;;4984394;28;20482;-17
2022/08/03 06:37:13;;;;;;;1.67;1.55;;;22.10;80.30;;;;;;4986028;28;20034;-17
2022/08/03 06:39:38;;;;;;;1.70;1.42;;;22.10;80.20;;;;;;4984576;28;20042;-18
2022/08/03 06:42:04;;;;;;;1.45;1.35;;;22.10;80.20;;;;;;4984143;28;20256;-17
2022/08/03 06:44:30;;;;;;;2.83;1.13;;;22.10;80.10;;;;;;4984649;28;20381;-26
2022/08/03 06:46:55;;;;;;;1.13;1.10;;;22.10;80.10;;;;;;4983305;28;20046;-17
2022/08/03 06:49:21;;;;;;;1.00;1.00;;;22.10;80.00;;;;;;4981889;28;20278;-18
2022/08/03 06:51:55;;;;;;;1.17;1.07;;;22.10;80.20;;;;;;4536247;28;10000908;-17
2022/08/03 06:54:21;;;;;;;1.20;1.20;;;22.20;79.70;;;;;;4976113;28;20267;-17
2022/08/03 06:56:47;;;;;;;1.20;1.10;;;22.30;79.40;;;;;;4977393;28;20064;-18
2022/08/03 06:59:12;;;;;;;1.35;1.13;;;22.20;79.30;;;;;;4982388;28;20045;-17
2022/08/03 07:01:38;;;;;;;0.98;0.93;;;22.30;79.20;;;;;;4977656;28;20054;-17
2022/08/03 07:04:04;;;;;;;1.45;0.88;;;22.20;79.40;;;;;;4977878;28;20108;-18
2022/08/03 07:06:30;;;;;;;0.95;0.88;;;22.30;79.30;;;;;;4980085;28;20522;-17
2022/08/03 07:08:56;;;;;;;0.70;0.70;;;22.40;79.10;;;;;;4979848;28;20129;-17
2022/08/03 07:11:22;;;;;;;0.90;0.90;;;22.30;79.20;;;;;;4981810;28;20038;-18
2022/08/03 07:13:47;;;;;;;1.80;0.90;;;22.40;79.00;;;;;;4976209;28;20448;-17
2022/08/03 07:16:13;;;;;;;1.58;1.30;;;22.50;79.10;;;;;;4980378;28;20121;-17
2022/08/03 07:18:38;;;;;;;2.10;1.27;;;22.50;78.90;;;;;;4977932;28;20046;-17
2022/08/03 07:21:04;;;;;;;1.52;1.10;;;22.50;78.90;;;;;;4976608;28;20073;-20
2022/08/03 07:23:30;;;;;;;1.42;1.13;;;22.50;78.80;;;;;;4979396;28;20526;-17
2022/08/03 07:25:55;;;;;;;1.33;1.13;;;22.50;78.90;;;;;;4979174;28;20534;-17
2022/08/03 07:28:21;;;;;;;1.35;1.25;;;22.50;78.80;;;;;;4982895;28;20443;-17
2022/08/03 07:30:46;;;;;;;1.48;0.85;;;22.60;78.50;;;;;;4974250;28;20474;-18
2022/08/03 07:33:12;;;;;;;1.20;1.10;;;22.60;78.50;;;;;;4978438;28;20392;-22
2022/08/03 07:35:38;;;;;;;2.03;1.20;;;22.50;78.80;;;;;;4976984;28;20133;-18
2022/08/03 07:38:03;;;;;;;1.02;0.95;;;22.60;78.60;;;;;;4981348;28;20133;-18
2022/08/03 07:40:29;;;;;;;1.30;1.20;;;22.50;78.90;;;;;;4976897;28;20138;-17
2022/08/03 07:42:54;;;;;;;1.10;1.02;;;22.40;78.90;;;;;;4981912;28;20117;-17
2022/08/03 07:45:22;;;;;;;0.90;0.90;;;22.40;79.10;;;;;;4977256;28;20046;-17
2022/08/03 07:47:47;;;;;;;2.10;0.90;;;22.50;79.20;;;;;;4982591;28;20521;-17
2022/08/03 07:50:13;;;;;;;2.67;1.00;;;22.50;79.80;;;;;;4978962;28;20180;-17
2022/08/03 07:52:48;;;;;;;1.20;1.00;;;22.60;78.70;;;;;;4989851;28;20038;-17
2022/08/03 07:55:14;;;;;;;1.20;1.10;;;22.50;79.10;;;;;;4982411;28;20519;-17
2022/08/03 07:57:39;;;;;;;1.10;1.10;;;22.50;78.90;;;;;;4983406;28;20050;-17
2022/08/03 08:00:09;;;;;;;1.27;1.00;;;22.50;79.00;;;;;;4981008;28;20463;-17
2022/08/03 08:02:35;;;;;;;1.98;0.98;;;22.60;78.70;;;;;;4983100;28;20046;-17
2022/08/03 08:05:00;;;;;;;0.77;0.77;;;22.70;78.70;;;;;;4986933;28;20047;-17
2022/08/03 08:07:26;;;;;;;1.00;0.90;;;22.60;78.70;;;;;;4992261;28;20496;-17
2022/08/03 08:09:52;;;;;;;1.63;0.75;;;22.60;78.80;;;;;;4988020;28;20185;-17
2022/08/03 08:12:17;;;;;;;1.40;1.30;;;22.60;78.80;;;;;;4987201;28;20054;-17
2022/08/03 08:14:45;;;;;;;0.70;0.70;;;22.60;79.00;;;;;;4986107;28;20045;-17
2022/08/03 08:17:11;;;;;;;1.20;0.90;;;22.60;79.10;;;;;;4986649;28;20045;-24
2022/08/03 08:19:36;;;;;;;0.75;0.75;;;22.60;79.10;;;;;;4983181;28;20042;-26
2022/08/03 08:22:02;;;;;;;1.17;1.08;;;22.70;78.80;;;;;;4983659;28;20050;-27
2022/08/03 08:24:29;;;;;;;1.40;0.95;;;22.70;78.40;;;;;;4980861;28;20070;-25
2022/08/03 08:26:55;;;;;;;4.85;0.95;;;22.90;78.00;;;;;;4980367;28;20154;-24
2022/08/03 08:29:22;;;;;;;3.08;0.82;;;23.00;77.40;;;;;;4983977;28;20114;-28
2022/08/03 08:31:48;;;;;;;0.80;0.80;;;23.00;77.10;;;;;;4980536;28;20755;-25
2022/08/03 08:34:14;;;;;;;2.03;0.90;;;23.10;77.20;;;;;;4982219;28;20074;-27
2022/08/03 08:36:40;;;;;;;2.42;0.85;;;23.10;76.80;;;;;;4982704;28;20573;-30
2022/08/03 08:39:06;;;;;;;0.80;0.80;;;23.20;76.30;;;;;;4982468;28;20038;-23
2022/08/03 08:41:34;;;;;;;0.90;0.77;;;23.20;76.80;;;;;;4986445;28;20097;-24
2022/08/03 08:44:01;;;;;;;0.80;0.80;;;23.20;76.80;;;;;;4979227;28;20061;-25
2022/08/03 08:46:26;;;;;;;1.15;0.52;;;23.20;76.30;;;;;;4985539;28;20073;-24
2022/08/03 08:48:52;;;;;;;1.27;0.85;;;23.30;75.50;;;;;;5017342;28;20058;-27
2022/08/03 08:51:18;;;;;;;1.60;1.00;;;23.30;75.80;;;;;;4982878;28;20096;-25
2022/08/03 08:53:46;;;;;;;2.45;0.60;;;23.40;75.80;;;;;;4982664;28;20050;-24
2022/08/03 08:56:16;;;;;;;1.20;1.00;;;23.40;75.50;;;;;;4984445;28;20057;-28
2022/08/03 08:58:45;;;;;;;1.67;0.73;;;23.40;75.30;;;;;;5017626;28;20403;-25
2022/08/03 09:01:10;;;;;;;2.13;0.80;;;23.50;75.20;;;;;;4983801;28;20034;-28
2022/08/03 09:03:36;;;;;;;1.50;0.90;;;23.50;74.80;;;;;;4986524;28;20069;-26
2022/08/03 09:06:02;;;;;;;1.58;0.77;;;23.50;74.80;;;;;;4983890;28;20046;-24
2022/08/03 09:08:31;;;;;;;1.13;0.80;;;23.50;74.90;;;;;;4984077;28;20038;-28
2022/08/03 09:10:57;;;;;;;3.97;1.20;;;23.60;74.90;;;;;;4981566;28;20038;-24
2022/08/03 09:13:22;;;;;;;0.90;0.90;;;23.60;74.60;;;;;;4981154;28;20050;-24
2022/08/03 09:15:49;;;;;;;2.15;1.15;;;23.60;74.90;;;;;;4984254;28;20562;-28
2022/08/03 09:18:27;;;;;;;0.80;0.80;;;23.60;74.50;;;;;;4986836;28;20600;-27
2022/08/03 09:20:53;;;;;;;4.70;0.95;;;23.60;74.50;;;;;;4984659;28;20507;-28
2022/08/03 09:23:18;;;;;;;2.30;0.77;;;23.60;74.50;;;;;;4986494;28;20069;-23
2022/08/03 09:25:44;;;;;;;1.42;1.15;;;23.70;74.70;;;;;;4982064;28;20137;-26
2022/08/03 09:28:13;;;;;;;1.00;0.60;;;23.70;74.50;;;;;;4982320;28;20490;-24
2022/08/03 09:30:40;;;;;;;0.65;0.60;;;23.70;74.60;;;;;;4985637;28;20046;-22
2022/08/03 09:33:07;;;;;;;0.73;0.73;;;23.70;74.30;;;;;;4985712;28;20066;-25
2022/08/03 09:35:45;;;;;;;1.75;0.70;;;23.70;74.40;;;;;;4982967;28;20092;-26
2022/08/03 09:38:29;;;;;;;0.70;0.55;;;23.70;74.50;;;;;;5014458;28;20586;-24
2022/08/03 09:40:55;;;;;;;0.60;0.60;;;23.70;74.50;;;;;;4978925;28;20051;-26
2022/08/03 09:43:20;;;;;;;4.18;0.95;;;23.80;74.20;;;;;;4983240;28;20086;-25
2022/08/03 09:45:46;;;;;;;0.70;0.70;;;23.80;74.30;;;;;;4986143;28;20392;-27
2022/08/03 09:48:25;;;;;;;1.05;1.02;;;23.80;74.20;;;;;;4986994;28;20574;-27
2022/08/03 09:50:55;;;;;;;1.38;1.27;;;23.80;74.90;;;;;;4983128;28;20078;-27
2022/08/03 09:53:21;;;;;;;1.50;1.40;;;23.80;75.20;;;;;;4982436;28;20058;-27
2022/08/03 09:55:57;;;;;;;3.08;1.30;;;23.90;75.30;;;;;;4985339;28;20100;-24
2022/08/03 09:58:23;;;;;;;1.00;1.00;;;23.90;75.60;;;;;;5016019;28;20169;-25
2022/08/03 10:01:04;;;;;;;1.75;0.93;;;23.90;75.40;;;;;;4982674;28;20507;-27
2022/08/03 10:03:34;;;;;;;0.90;0.90;;;23.90;76.20;;;;;;4985857;28;20052;-26
2022/08/03 10:06:19;;;;;;;1.20;1.10;;;23.90;75.20;;;;;;4979744;28;20038;-23
2022/08/03 10:08:45;;;;;;;1.00;0.90;;;23.90;74.80;;;;;;4980643;28;20045;-26
2022/08/03 10:11:11;;;;;;;2.10;1.27;;;23.90;74.60;;;;;;4982957;28;20046;-26
2022/08/03 10:13:37;;;;;;;1.30;1.20;;;24.00;75.00;;;;;;4986238;28;20093;-28
2022/08/03 10:16:03;;;;;;;1.13;0.85;;;24.00;74.40;;;;;;4985268;28;22228;-26
2022/08/03 10:18:29;;;;;;;1.13;0.90;;;24.10;74.10;;;;;;4982580;28;20062;-26
2022/08/03 10:21:02;;;;;;;1.60;0.90;;;24.00;74.40;;;;;;4983594;28;20415;-22
2022/08/03 10:23:27;;;;;;;1.30;1.02;;;24.10;74.10;;;;;;4985569;28;20519;-26
2022/08/03 10:25:56;;;;;;;1.90;1.02;;;24.10;73.90;;;;;;4982855;28;20054;-24
2022/08/03 10:28:22;;;;;;;0.90;0.90;;;24.20;73.70;;;;;;4982637;28;20061;-27
2022/08/03 10:30:49;;;;;;;1.45;1.02;;;24.20;73.80;;;;;;4984816;28;20495;-25
2022/08/03 10:33:18;;;;;;;1.30;1.15;;;24.20;73.90;;;;;;4981853;28;20046;-25
2022/08/03 10:35:43;;;;;;;2.10;0.80;;;24.20;74.00;;;;;;4983133;28;20403;-28
2022/08/03 10:38:11;;;;;;;1.45;1.00;;;24.10;73.70;;;;;;5016849;28;20082;-24
2022/08/03 10:40:37;;;;;;;1.30;0.90;;;24.20;73.40;;;;;;4998500;28;20133;-25
2022/08/03 10:43:09;;;;;;;2.42;1.05;;;24.20;73.40;;;;;;5009351;28;20126;-27
2022/08/03 10:45:35;;;;;;;1.58;0.90;;;24.20;73.40;;;;;;4986065;28;20042;-24
2022/08/03 10:48:01;;;;;;;0.95;0.75;;;24.20;73.40;;;;;;4979258;28;20042;-24
2022/08/03 10:50:27;;;;;;;2.90;0.80;;;24.20;73.30;;;;;;5017190;28;20116;-23
2022/08/03 10:53:13;;;;;;;0.90;0.75;;;24.30;73.20;;;;;;4979125;28;20141;-26
2022/08/03 10:58:37;;;;;;;1.70;0.70;;;24.30;73.60;;;;;;4980351;28;20104;-31
2022/08/03 11:01:03;;;;;;;1.35;0.70;;;24.20;73.40;;;;;;4978698;28;20062;-22
2022/08/03 11:03:28;;;;;;;0.90;0.90;;;24.30;73.10;;;;;;4980159;28;20079;-25
2022/08/03 11:06:17;;;;;;;1.00;0.95;;;24.30;73.30;;;;;;4981298;28;20217;-27
2022/08/03 11:08:43;;;;;;;0.80;0.80;;;24.30;73.10;;;;;;4979772;28;20033;-25
2022/08/03 11:11:18;;;;;;;1.00;0.90;;;24.30;73.10;;;;;;4978376;28;20053;-23
2022/08/03 11:14:20;;;;;;;2.28;0.90;;;24.30;73.10;;;;;;4977285;28;20031;-23
2022/08/03 11:16:51;;;;;;;1.23;1.00;;;24.30;72.80;;;;;;4977198;28;20149;-22
2022/08/03 11:19:26;;;;;;;1.48;0.70;;;24.30;73.30;;;;;;4976927;28;20086;-30
2022/08/03 11:21:53;;;;;;;1.35;0.60;;;24.30;73.20;;;;;;4976763;28;20081;-24
2022/08/03 11:24:39;;;;;;;1.27;0.75;;;24.40;73.60;;;;;;4977821;28;20069;-26
2022/08/03 11:27:21;;;;;;;0.80;0.80;;;24.40;73.10;;;;;;4976906;28;20038;-28
2022/08/03 11:30:00;;;;;;;0.80;0.80;;;24.40;73.10;;;;;;4632845;28;10000759;-20
2022/08/03 11:32:42;;;;;;;1.20;0.80;;;24.40;73.00;;;;;;4991771;28;20148;-37
2022/08/03 11:35:11;;;;;;;1.40;0.75;;;24.50;73.20;;;;;;4985762;28;20132;-23
2022/08/03 11:38:04;;;;;;;1.98;0.90;;;24.40;72.90;;;;;;4984213;28;20530;-26
2022/08/03 11:40:36;;;;;;;1.95;0.75;;;24.40;72.90;;;;;;4983118;28;20034;-24
2022/08/03 11:43:03;;;;;;;2.22;0.98;;;24.50;73.10;;;;;;4984304;28;20133;-32
2022/08/03 11:45:30;;;;;;;2.70;0.90;;;24.50;73.30;;;;;;5017560;28;20042;-21
2022/08/03 11:47:57;;;;;;;0.95;0.77;;;24.60;73.00;;;;;;4985679;28;20030;-19
2022/08/03 11:50:23;;;;;;;1.80;1.08;;;24.60;73.60;;;;;;4986456;28;20046;-20
2022/08/03 11:52:48;;;;;;;1.02;0.90;;;24.60;73.00;;;;;;4988490;28;20478;-21
2022/08/03 11:55:17;;;;;;;0.95;0.70;;;24.50;72.70;;;;;;4988912;28;20062;-19
2022/08/03 11:57:45;;;;;;;4.30;0.70;;;24.50;72.60;;;;;;4988442;28;20065;-20
2022/08/03 12:00:23;;;;;;;1.23;0.80;;;24.50;72.50;;;;;;4987371;28;20069;-20
2022/08/03 12:03:10;;;;;;;1.08;0.93;;;24.50;72.50;;;;;;4988954;28;20104;-20
2022/08/03 12:05:49;;;;;;;1.20;0.88;;;24.50;73.20;;;;;;4989578;28;20050;-23
2022/08/03 12:08:17;;;;;;;0.80;0.80;;;24.60;72.20;;;;;;4988874;28;20050;-20
2022/08/03 12:10:47;;;;;;;0.80;0.80;;;24.50;72.00;;;;;;4989592;28;20077;-25
2022/08/03 12:13:13;;;;;;;0.65;0.65;;;24.50;72.20;;;;;;4987992;28;20061;-20
2022/08/03 12:15:39;;;;;;;1.80;1.17;;;24.60;72.20;;;;;;4988850;28;20050;-20
2022/08/03 12:18:13;;;;;;;0.68;0.68;;;24.60;72.10;;;;;;5002382;28;20218;-20
2022/08/03 12:20:38;;;;;;;;;;;24.60;72.10;;;;;;4988721;28;20061;-21
2022/08/03 12:23:04;;;;;;;0.98;0.90;;;24.60;71.80;;;;;;4988864;28;20342;-20
2022/08/03 12:25:30;;;;;;;1.50;0.55;;;24.60;72.70;;;;;;4989871;28;20053;-22
2022/08/03 12:28:25;;;;;;;1.05;0.93;;;24.60;71.70;;;;;;4987098;28;20047;-19
2022/08/03 12:30:51;;;;;;;2.25;0.70;;;24.60;71.60;;;;;;4986117;28;20078;-21
2022/08/03 12:33:24;;;;;;;0.60;0.60;;;24.60;71.70;;;;;;5017823;28;20381;-22
2022/08/03 12:36:07;;;;;;;2.77;0.63;;;24.60;71.70;;;;;;4985611;28;20042;-19
2022/08/03 12:38:35;;;;;;;1.30;0.60;;;24.60;71.40;;;;;;4986942;28;20082;-23
2022/08/03 12:41:14;;;;;;;1.15;0.70;;;24.60;71.40;;;;;;4986643;28;20108;-20
2022/08/03 12:43:49;;;;;;;0.68;0.68;;;24.60;71.40;;;;;;4987353;28;20925;-19
2022/08/03 12:46:16;;;;;;;0.50;0.50;;;24.60;71.30;;;;;;4986574;28;20136;-23
2022/08/03 12:49:00;;;;;;;1.38;0.80;;;24.60;71.30;;;;;;4983870;28;20042;-21
2022/08/03 12:51:27;;;;;;;0.50;0.50;;;24.60;71.30;;;;;;4982100;28;20054;-19
2022/08/03 12:53:57;;;;;;;0.52;0.52;;;24.60;71.20;;;;;;4985275;28;20968;-19
2022/08/03 12:56:22;;;;;;;0.60;0.60;;;24.70;71.30;;;;;;4987855;28;20042;-24
2022/08/03 12:58:49;;;;;;;2.03;0.80;;;24.60;71.10;;;;;;4986816;28;20053;-19
2022/08/03 13:01:15;;;;;;;0.70;0.70;;;24.60;71.10;;;;;;4986200;28;20101;-21